createdAt,value
2019-05-11T00:01:24.694Z,101492.14
2019-05-11T00:03:56.615Z,101482.58
2019-05-11T00:06:28.667Z,101476.13
2019-05-11T00:09:00.641Z,101471.06
2019-05-11T00:11:32.604Z,101467.85
2019-05-11T00:14:04.559Z,101463.11
2019-05-11T00:16:36.499Z,101467.08
2019-05-11T00:19:08.713Z,101470.59
2019-05-11T00:21:40.673Z,101477.11
2019-05-11T00:24:12.603Z,101470.13
2019-05-11T00:26:44.633Z,101470.06
2019-05-11T00:29:16.562Z,101477.13
2019-05-11T00:31:48.530Z,101476.04
2019-05-11T00:34:20.461Z,101468.19
2019-05-11T00:36:52.420Z,101471.17
2019-05-11T00:39:24.782Z,101468.36
2019-05-11T00:41:56.720Z,101474.15
2019-05-11T00:44:28.662Z,101477.70
2019-05-11T00:47:00.622Z,101477.87
2019-05-11T00:49:32.653Z,101480.02
2019-05-11T00:52:04.967Z,101477.16
2019-05-11T00:54:36.914Z,101476.68
2019-05-11T00:57:08.842Z,101485.87
2019-05-11T00:59:40.812Z,101480.69
2019-05-11T01:02:12.753Z,101480.20
2019-05-11T01:04:44.704Z,101486.66
2019-05-11T01:07:16.962Z,101477.33
2019-05-11T01:09:48.981Z,101483.77
2019-05-11T01:12:21.337Z,101484.97
2019-05-11T01:14:53.271Z,101481.64
2019-05-11T01:17:25.521Z,101484.44
2019-05-11T01:19:57.519Z,101491.53
2019-05-11T01:22:29.730Z,101487.99
2019-05-11T01:25:01.764Z,101473.18
2019-05-11T01:27:33.700Z,101478.06
2019-05-11T01:30:07.147Z,101468.77
2019-05-11T01:32:39.102Z,101467.07
2019-05-11T01:35:11.784Z,101472.48
2019-05-11T01:37:43.724Z,101469.22
2019-05-11T01:40:16.323Z,101468.89
2019-05-11T01:42:48.260Z,101474.61
2019-05-11T01:45:20.204Z,101468.39
2019-05-11T01:47:52.156Z,101471.45
2019-05-11T01:50:24.114Z,101480.02
2019-05-11T01:52:56.116Z,101473.36
2019-05-11T01:55:28.089Z,101472.70
2019-05-11T01:58:00.040Z,101469.11
2019-05-11T02:00:31.991Z,101476.97
2019-05-11T02:03:03.934Z,101478.77
2019-05-11T02:05:35.887Z,101474.50
2019-05-11T02:08:07.808Z,101468.28
2019-05-11T02:10:39.773Z,101471.40
2019-05-11T02:13:11.709Z,101474.78
2019-05-11T02:15:43.682Z,101474.17
2019-05-11T02:18:15.985Z,101474.61
2019-05-11T02:20:47.916Z,101475.59
2019-05-11T02:23:20.171Z,101468.94
2019-05-11T02:25:52.132Z,101472.54
2019-05-11T02:28:24.079Z,101472.43
2019-05-11T02:30:56.211Z,101475.05
2019-05-11T02:33:28.157Z,101476.47
2019-05-11T02:36:00.095Z,101474.16
2019-05-11T02:38:34.903Z,101475.30
2019-05-11T02:41:06.848Z,101474.10
2019-05-11T02:43:38.798Z,101467.83
2019-05-11T02:46:10.821Z,101470.84
2019-05-11T02:48:43.081Z,101472.47
2019-05-11T02:51:15.356Z,101477.69
2019-05-11T02:53:48.838Z,101480.86
2019-05-11T02:56:20.818Z,101474.42
2019-05-11T02:58:52.717Z,101477.85
2019-05-11T03:01:24.685Z,101476.66
2019-05-11T03:03:56.605Z,101478.95
2019-05-11T03:06:28.584Z,101479.71
2019-05-11T03:09:00.508Z,101478.56
2019-05-11T03:11:32.457Z,101479.98
2019-05-11T03:14:04.453Z,101479.00
2019-05-11T03:16:36.409Z,101490.45
2019-05-11T03:19:08.416Z,101489.64
2019-05-11T03:21:40.362Z,101490.23
2019-05-11T03:24:12.319Z,101494.70
2019-05-11T03:26:44.262Z,101497.98
2019-05-11T03:29:16.213Z,101498.91
2019-05-11T03:31:48.154Z,101506.05
2019-05-11T03:34:20.090Z,101506.84
2019-05-11T03:36:52.208Z,101516.88
2019-05-11T03:39:24.149Z,101521.30
2019-05-11T03:42:13.368Z,101516.88
2019-05-11T03:44:29.736Z,101524.10
2019-05-11T03:47:01.934Z,101527.81
2019-05-11T03:49:33.892Z,101524.81
2019-05-11T03:52:05.843Z,101522.03
2019-05-11T03:54:37.767Z,101526.94
2019-05-11T03:57:09.702Z,101523.96
2019-05-11T03:59:41.817Z,101526.53
2019-05-11T04:02:13.835Z,101531.66
2019-05-11T04:04:45.799Z,101527.84
2019-05-11T04:07:17.747Z,101517.41
2019-05-11T04:09:50.021Z,101521.26
2019-05-11T04:12:33.948Z,101531.34
2019-05-11T04:14:55.598Z,101533.11
2019-05-11T04:17:27.860Z,101534.55
2019-05-11T04:19:59.798Z,101531.50
2019-05-11T04:22:31.740Z,101541.27
2019-05-11T04:25:04.540Z,101540.04
2019-05-11T04:27:36.849Z,101545.10
2019-05-11T04:30:09.629Z,101538.67
2019-05-11T04:32:41.630Z,101534.87
2019-05-11T04:35:13.649Z,101545.77
2019-05-11T04:37:45.585Z,101542.89
2019-05-11T04:40:17.875Z,101539.03
2019-05-11T04:42:55.576Z,101541.45
2019-05-11T04:45:23.466Z,101543.71
2019-05-11T04:47:55.422Z,101546.80
2019-05-11T04:50:27.369Z,101555.13
2019-05-11T04:52:59.358Z,101555.25
2019-05-11T04:55:32.248Z,101556.15
2019-05-11T04:58:04.202Z,101564.84
2019-05-11T05:00:36.141Z,101567.74
2019-05-11T05:03:08.086Z,101566.25
2019-05-11T05:05:40.045Z,101562.30
2019-05-11T05:08:11.979Z,101569.44
2019-05-11T05:10:43.927Z,101566.47
2019-05-11T05:13:15.866Z,101569.03
2019-05-11T05:15:47.808Z,101576.25
2019-05-11T05:18:19.765Z,101575.14
2019-05-11T05:20:51.709Z,101574.33
2019-05-11T05:23:23.933Z,101561.80
2019-05-11T05:25:55.881Z,101562.19
2019-05-11T05:28:27.834Z,101560.42
2019-05-11T05:30:59.781Z,101561.17
2019-05-11T05:33:31.799Z,101558.31
2019-05-11T05:36:03.871Z,101554.66
2019-05-11T05:38:36.083Z,101553.03
2019-05-11T05:41:08.304Z,101561.59
2019-05-11T05:43:40.565Z,101557.98
2019-05-11T05:46:12.581Z,101561.52
2019-05-11T05:48:45.113Z,101560.34
2019-05-11T05:51:17.049Z,101563.66
2019-05-11T05:53:49.019Z,101559.10
2019-05-11T05:56:20.954Z,101558.38
2019-05-11T05:58:52.937Z,101566.68
2019-05-11T06:01:24.885Z,101570.13
2019-05-11T06:03:56.818Z,101572.28
2019-05-11T06:06:28.823Z,101571.73
2019-05-11T06:09:00.775Z,101567.75
2019-05-11T06:11:32.819Z,101572.05
2019-05-11T06:14:04.764Z,101569.84
2019-05-11T06:16:36.803Z,101573.59
2019-05-11T06:19:09.092Z,101577.13
2019-05-11T06:21:41.054Z,101591.20
2019-05-11T06:24:13.001Z,101591.23
2019-05-11T06:26:45.287Z,101592.91
2019-05-11T06:29:21.274Z,101589.34
2019-05-11T06:31:51.168Z,101595.48
2019-05-11T06:34:23.126Z,101592.36
2019-05-11T06:36:55.422Z,101596.19
2019-05-11T06:39:27.447Z,101596.63
2019-05-11T06:41:59.398Z,101597.23
2019-05-11T06:44:31.435Z,101598.42
2019-05-11T06:47:03.423Z,101605.76
2019-05-11T06:49:35.459Z,101598.02
2019-05-11T06:52:07.690Z,101600.92
2019-05-11T06:54:39.689Z,101600.64
2019-05-11T06:57:11.619Z,101606.02
2019-05-11T06:59:43.567Z,101606.80
2019-05-11T07:02:15.514Z,101604.09
2019-05-11T07:04:47.452Z,101616.36
2019-05-11T07:07:19.402Z,101621.21
2019-05-11T07:09:51.339Z,101623.23
2019-05-11T07:12:23.509Z,101635.91
2019-05-11T07:14:55.480Z,101625.09
2019-05-11T07:17:27.496Z,101632.63
2019-05-11T07:19:59.474Z,101632.69
2019-05-11T07:22:31.445Z,101631.33
2019-05-11T07:25:04.705Z,101632.95
2019-05-11T07:27:36.821Z,101633.96
2019-05-11T07:30:09.789Z,101646.34
2019-05-11T07:32:41.727Z,101648.73
2019-05-11T07:35:13.758Z,101653.14
2019-05-11T07:37:47.708Z,101649.66
2019-05-11T07:40:19.439Z,101641.50
2019-05-11T07:42:51.667Z,101643.44
2019-05-11T07:45:24.180Z,101644.16
2019-05-11T07:47:56.122Z,101649.02
2019-05-11T07:50:28.475Z,101644.20
2019-05-11T07:53:01.067Z,101642.61
2019-05-11T07:55:33.035Z,101644.73
2019-05-11T07:58:05.059Z,101644.91
2019-05-11T08:00:39.811Z,101645.38
2019-05-11T08:03:10.745Z,101639.86
2019-05-11T08:05:42.700Z,101640.91
2019-05-11T08:08:14.695Z,101639.39
2019-05-11T08:10:48.329Z,101645.02
2019-05-11T08:13:20.312Z,101641.88
2019-05-11T08:15:52.319Z,101636.75
2019-05-11T08:18:24.630Z,101635.78
2019-05-11T08:20:58.272Z,101631.80
2019-05-11T08:23:30.399Z,101639.33
2019-05-11T08:26:02.925Z,101646.11
2019-05-11T08:28:35.209Z,101644.39
2019-05-11T08:31:08.089Z,101650.91
2019-05-11T08:33:40.373Z,101651.35
2019-05-11T08:36:12.387Z,101651.52
2019-05-11T08:38:44.715Z,101652.98
2019-05-11T08:41:18.453Z,101654.39
2019-05-11T08:43:50.743Z,101656.16
2019-05-11T08:46:22.688Z,101659.16
2019-05-11T08:48:54.921Z,101662.22
2019-05-11T08:51:28.032Z,101655.06
2019-05-11T08:54:00.092Z,101652.66
2019-05-11T08:56:32.255Z,101650.06
2019-05-11T08:59:04.218Z,101646.55
2019-05-11T09:01:39.266Z,101644.53
2019-05-11T09:04:10.959Z,101643.95
2019-05-11T09:06:43.078Z,101642.97
2019-05-11T09:09:15.330Z,101646.87
2019-05-11T09:11:48.132Z,101644.33
2019-05-11T09:14:20.492Z,101643.17
2019-05-11T09:16:52.433Z,101647.48
2019-05-11T09:19:24.726Z,101645.86
2019-05-11T09:21:58.802Z,101651.75
2019-05-11T09:24:30.400Z,101647.65
2019-05-11T09:27:02.351Z,101646.03
2019-05-11T09:29:34.279Z,101645.89
2019-05-11T09:32:08.665Z,101640.03
2019-05-11T09:34:39.948Z,101648.44
2019-05-11T09:37:11.913Z,101647.02
2019-05-11T09:39:44.124Z,101659.27
2019-05-11T09:42:17.947Z,101654.34
2019-05-11T09:44:49.709Z,101657.34
2019-05-11T09:47:21.965Z,101653.09
2019-05-11T09:49:53.934Z,101657.84
2019-05-11T09:52:27.842Z,101662.59
2019-05-11T09:54:59.924Z,101659.48
2019-05-11T09:57:31.936Z,101664.27
2019-05-11T10:00:04.366Z,101664.55
2019-05-11T10:02:38.547Z,101664.52
2019-05-11T10:05:10.856Z,101660.63
2019-05-11T10:07:42.785Z,101661.43
2019-05-11T10:10:14.955Z,101660.25
2019-05-11T10:12:48.537Z,101660.87
2019-05-11T10:15:20.977Z,101655.72
2019-05-11T10:17:52.917Z,101650.86
2019-05-11T10:20:24.856Z,101648.34
2019-05-11T10:22:57.984Z,101650.23
2019-05-11T10:25:30.210Z,101652.17
2019-05-11T10:28:02.461Z,101647.80
2019-05-11T10:30:34.414Z,101651.69
2019-05-11T10:33:08.248Z,101650.16
2019-05-11T10:35:39.995Z,101656.48
2019-05-11T10:38:11.945Z,101661.89
2019-05-11T10:40:43.898Z,101670.81
2019-05-11T10:43:18.186Z,101671.92
2019-05-11T10:45:49.837Z,101679.72
2019-05-11T10:48:21.798Z,101674.65
2019-05-11T10:50:53.811Z,101678.09
2019-05-11T10:53:28.184Z,101672.16
2019-05-11T10:56:00.451Z,101678.30
2019-05-11T10:58:32.402Z,101679.34
2019-05-11T11:01:04.379Z,101670.68
2019-05-11T11:03:37.761Z,101668.52
2019-05-11T11:06:09.830Z,101675.44
2019-05-11T11:08:41.765Z,101666.45
2019-05-11T11:11:13.730Z,101668.48
2019-05-11T11:13:47.809Z,101673.52
2019-05-11T11:16:35.246Z,101676.94
2019-05-11T11:18:53.038Z,101674.57
2019-05-11T11:21:25.013Z,101666.18
2019-05-11T11:23:58.735Z,101672.16
2019-05-11T11:26:30.755Z,101671.77
2019-05-11T11:29:02.693Z,101678.30
2019-05-11T11:31:34.642Z,101675.45
2019-05-11T11:34:08.290Z,101675.02
2019-05-11T11:36:40.405Z,101676.19
2019-05-11T11:39:13.454Z,101673.42
2019-05-11T11:41:45.745Z,101675.34
2019-05-11T11:44:18.488Z,101678.61
2019-05-11T11:46:55.149Z,101686.97
2019-05-11T11:49:24.357Z,101672.19
2019-05-11T11:51:57.723Z,101673.92
2019-05-11T11:54:30.083Z,101686.94
2019-05-11T11:57:02.336Z,101676.72
2019-05-11T11:59:34.275Z,101674.19
2019-05-11T12:02:08.390Z,101676.98
2019-05-11T12:04:39.898Z,101679.41
2019-05-11T12:07:12.006Z,101677.77
2019-05-11T12:09:43.949Z,101680.23
2019-05-11T12:12:15.907Z,101679.88
2019-05-11T12:14:48.191Z,101678.75
2019-05-11T12:17:20.297Z,101686.55
2019-05-11T12:19:52.270Z,101696.55
2019-05-11T12:22:24.188Z,101684.25
2019-05-11T12:24:58.747Z,101696.75
2019-05-11T12:27:29.778Z,101690.95
2019-05-11T12:30:01.818Z,101700.29
2019-05-11T12:32:38.469Z,101700.62
2019-05-11T12:35:10.811Z,101710.94
2019-05-11T12:37:42.775Z,101714.95
2019-05-11T12:40:18.015Z,101714.62
2019-05-11T12:42:49.731Z,101715.37
2019-05-11T12:45:21.823Z,101715.42
2019-05-11T12:47:53.830Z,101719.92
2019-05-11T12:50:28.603Z,101715.69
2019-05-11T12:53:00.448Z,101718.30
2019-05-11T12:55:32.403Z,101721.44
2019-05-11T12:58:04.351Z,101726.38
2019-05-11T13:00:38.896Z,101721.57
2019-05-11T13:03:11.054Z,101727.71
2019-05-11T13:05:42.991Z,101722.98
2019-05-11T13:08:14.942Z,101726.84
2019-05-11T13:10:47.886Z,101724.55
2019-05-11T13:13:20.138Z,101727.03
2019-05-11T13:15:52.190Z,101734.28
2019-05-11T13:18:24.152Z,101735.54
2019-05-11T13:20:56.097Z,101737.95
2019-05-11T13:23:28.142Z,101740.05
2019-05-11T13:26:00.079Z,101746.25
2019-05-11T13:28:32.043Z,101750.07
2019-05-11T13:31:03.985Z,101744.84
2019-05-11T13:33:38.277Z,101740.66
2019-05-11T13:36:09.657Z,101747.79
2019-05-11T13:38:41.609Z,101744.61
2019-05-11T13:41:13.551Z,101744.98
2019-05-11T13:43:45.497Z,101753.89
2019-05-11T13:46:17.952Z,101754.11
2019-05-11T13:48:50.544Z,101759.36
2019-05-11T13:51:22.492Z,101758.13
2019-05-11T13:53:54.695Z,101763.04
2019-05-11T13:56:28.467Z,101767.69
2019-05-11T13:59:12.576Z,101765.31
2019-05-11T14:01:44.530Z,101775.64
2019-05-11T14:04:18.093Z,101768.56
2019-05-11T14:06:50.116Z,101772.60
2019-05-11T14:09:22.075Z,101769.52
2019-05-11T14:11:54.037Z,101771.34
2019-05-11T14:14:26.065Z,101769.51
2019-05-11T14:16:58.852Z,101776.90
2019-05-11T14:19:31.055Z,101774.47
2019-05-11T14:22:03.185Z,101770.80
2019-05-11T14:24:35.120Z,101775.11
2019-05-11T14:27:08.626Z,101777.20
2019-05-11T14:29:40.618Z,101774.62
2019-05-11T14:32:12.899Z,101775.34
2019-05-11T14:34:44.865Z,101777.62
2019-05-11T14:37:18.087Z,101779.64
2019-05-11T14:39:50.599Z,101783.08
2019-05-11T14:42:22.569Z,101782.91
2019-05-11T14:44:54.495Z,101786.37
2019-05-11T14:47:28.273Z,101784.03
2019-05-11T14:50:00.176Z,101793.22
2019-05-11T14:52:33.007Z,101795.52
2019-05-11T14:55:08.194Z,101795.75
2019-05-11T14:57:39.872Z,101804.32
2019-05-11T15:00:12.578Z,101813.91
2019-05-11T15:02:49.076Z,101823.83
2019-05-11T15:05:22.154Z,101816.21
2019-05-11T15:07:54.105Z,101824.86
2019-05-11T15:10:27.806Z,101819.28
2019-05-11T15:12:59.899Z,101817.75
2019-05-11T15:15:31.836Z,101821.79
2019-05-11T15:18:03.868Z,101826.24
2019-05-11T15:20:35.803Z,101831.94
2019-05-11T15:23:08.870Z,101826.83
2019-05-11T15:25:40.938Z,101834.70
2019-05-11T15:28:12.903Z,101829.20
2019-05-11T15:30:44.846Z,101828.30
2019-05-11T15:33:18.334Z,101829.78
2019-05-11T15:35:50.518Z,101847.88
2019-05-11T15:38:22.498Z,101838.81
2019-05-11T15:40:54.455Z,101847.03
2019-05-11T15:43:28.252Z,101842.70
2019-05-11T15:46:00.350Z,101855.61
2019-05-11T15:48:32.293Z,101855.11
2019-05-11T15:51:04.308Z,101853.22
2019-05-11T15:53:36.319Z,101854.34
2019-05-11T15:56:08.702Z,101851.69
2019-05-11T15:58:42.127Z,101855.45
2019-05-11T16:01:15.475Z,101862.23
2019-05-11T16:03:50.132Z,101860.69
2019-05-11T16:06:23.612Z,101870.12
2019-05-11T16:08:58.583Z,101868.34
2019-05-11T16:11:32.087Z,101870.21
2019-05-11T16:14:05.397Z,101871.66
2019-05-11T16:16:39.293Z,101869.84
2019-05-11T16:19:15.174Z,101874.70
2019-05-11T16:21:47.729Z,101874.46
2019-05-11T16:24:21.036Z,101873.42
2019-05-11T16:26:54.352Z,101878.79
2019-05-11T16:29:28.049Z,101881.92
2019-05-11T16:32:01.498Z,101879.83
2019-05-11T16:34:33.336Z,101888.21
2019-05-11T16:37:07.772Z,101891.45
2019-05-11T16:39:38.701Z,101897.41
2019-05-11T16:42:10.521Z,101893.88
2019-05-11T16:44:42.385Z,101900.85
2019-05-11T16:47:14.207Z,101908.43
2019-05-11T16:49:46.835Z,101905.96
2019-05-11T16:52:18.661Z,101910.21
2019-05-11T16:54:50.519Z,101904.15
2019-05-11T16:57:22.354Z,101905.63
2019-05-11T16:59:54.498Z,101909.25
2019-05-11T17:02:27.437Z,101908.75
2019-05-11T17:05:01.068Z,101909.07
2019-05-11T17:07:33.263Z,101910.40
2019-05-11T17:10:08.451Z,101904.53
2019-05-11T17:12:40.824Z,101912.31
2019-05-11T17:15:13.586Z,101922.61
2019-05-11T17:17:45.410Z,101923.09
2019-05-11T17:20:19.473Z,101920.08
2019-05-11T17:22:53.760Z,101925.53
2019-05-11T17:25:25.236Z,101924.45
2019-05-11T17:27:58.794Z,101934.27
2019-05-11T17:30:30.862Z,101932.75
2019-05-11T17:33:04.154Z,101936.94
2019-05-11T17:35:37.464Z,101945.06
2019-05-11T17:38:09.555Z,101939.84
2019-05-11T17:40:41.516Z,101945.95
2019-05-11T17:43:13.773Z,101940.38
2019-05-11T17:45:47.792Z,101949.66
2019-05-11T17:48:19.387Z,101950.95
2019-05-11T17:50:51.328Z,101954.77
2019-05-11T17:53:23.350Z,101953.38
2019-05-11T17:55:57.790Z,101956.08
2019-05-11T17:58:29.479Z,101962.97
2019-05-11T18:01:01.465Z,101962.77
2019-05-11T18:03:33.412Z,101962.60
2019-05-11T18:06:08.304Z,101965.07
2019-05-11T18:08:39.848Z,101964.61
2019-05-11T18:11:11.802Z,101962.50
2019-05-11T18:13:43.736Z,101964.17
2019-05-11T18:16:15.794Z,101966.75
2019-05-11T18:18:48.339Z,101971.11
2019-05-11T18:21:20.520Z,101969.92
2019-05-11T18:23:52.472Z,101976.25
2019-05-11T18:26:24.562Z,101981.81
2019-05-11T18:28:58.566Z,101986.16
2019-05-11T18:31:30.503Z,101996.80
2019-05-11T18:34:02.517Z,101997.38
2019-05-11T18:36:34.461Z,101996.66
2019-05-11T18:39:07.984Z,102007.25
2019-05-11T18:41:39.937Z,102006.20
2019-05-11T18:44:12.046Z,102012.70
2019-05-11T18:46:44.009Z,102017.66
2019-05-11T18:49:17.841Z,102017.31
2019-05-11T18:51:49.990Z,102015.88
2019-05-11T18:54:22.293Z,102021.30
2019-05-11T18:56:54.242Z,102026.55
2019-05-11T18:59:28.286Z,102026.59
2019-05-11T19:02:00.824Z,102036.49
2019-05-11T19:04:32.768Z,102046.71
2019-05-11T19:07:15.910Z,102045.51
2019-05-11T19:09:38.367Z,102043.55
2019-05-11T19:12:10.507Z,102045.86
2019-05-11T19:14:42.439Z,102043.79
2019-05-11T19:17:15.066Z,102045.59
2019-05-11T19:19:48.614Z,102038.94
2019-05-11T19:22:20.983Z,102038.73
2019-05-11T19:24:52.925Z,102045.59
2019-05-11T19:27:24.951Z,102047.88
2019-05-11T19:29:57.699Z,102053.91
2019-05-11T19:32:29.920Z,102053.70
2019-05-11T19:35:02.156Z,102053.55
2019-05-11T19:37:34.093Z,102065.95
2019-05-11T19:40:09.177Z,102069.33
2019-05-11T19:42:59.058Z,102083.31
2019-05-11T19:45:30.895Z,102091.37
2019-05-11T19:48:03.213Z,102112.29
2019-05-11T19:50:35.189Z,102117.50
2019-05-11T19:53:08.463Z,102120.08
2019-05-11T19:55:40.817Z,102131.20
2019-05-11T19:58:12.760Z,102131.70
2019-05-11T20:00:44.699Z,102137.56
2019-05-11T20:03:18.258Z,102139.41
2019-05-11T20:05:50.498Z,102137.27
2019-05-11T20:08:22.521Z,102132.67
2019-05-11T20:10:54.627Z,102129.98
2019-05-11T20:13:28.394Z,102126.03
2019-05-11T20:16:00.634Z,102138.42
2019-05-11T20:18:32.571Z,102139.84
2019-05-11T20:21:16.726Z,102148.37
2019-05-11T20:23:38.179Z,102156.80
2019-05-11T20:26:10.210Z,102157.52
2019-05-11T20:28:42.507Z,102153.08
2019-05-11T20:31:14.521Z,102148.64
2019-05-11T20:33:47.674Z,102151.93
2019-05-11T20:36:19.703Z,102150.87
2019-05-11T20:38:51.943Z,102156.13
2019-05-11T20:41:23.864Z,102152.95
2019-05-11T20:43:57.683Z,102153.61
2019-05-11T20:46:29.467Z,102155.03
2019-05-11T20:49:01.409Z,102158.73
2019-05-11T20:51:36.997Z,102166.50
2019-05-11T20:54:08.841Z,102167.81
2019-05-11T20:56:40.767Z,102170.99
2019-05-11T20:59:12.775Z,102175.92
2019-05-11T21:01:44.730Z,102176.36
2019-05-11T21:04:18.774Z,102176.53
2019-05-11T21:06:51.006Z,102185.13
2019-05-11T21:09:22.953Z,102181.89
2019-05-11T21:11:54.914Z,102184.68
2019-05-11T21:14:28.787Z,102188.63
2019-05-11T21:17:00.506Z,102183.97
2019-05-11T21:19:32.749Z,102181.67
2019-05-11T21:22:04.824Z,102181.89
2019-05-11T21:24:36.850Z,102183.75
2019-05-11T21:27:08.806Z,102185.01
2019-05-11T21:29:40.803Z,102187.08
2019-05-11T21:32:12.735Z,102189.60
2019-05-11T21:34:45.045Z,102195.63
2019-05-11T21:37:18.267Z,102194.40
2019-05-11T21:39:50.610Z,102193.58
2019-05-11T21:42:22.543Z,102195.72
2019-05-11T21:44:54.491Z,102199.84
2019-05-11T21:47:28.813Z,102202.75
2019-05-11T21:50:00.077Z,102206.75
2019-05-11T21:52:32.018Z,102215.46
2019-05-11T21:55:05.672Z,102215.23
2019-05-11T21:57:37.621Z,102223.39
2019-05-11T22:00:12.057Z,102228.81
2019-05-11T22:02:44.055Z,102233.52
2019-05-11T22:05:20.191Z,102239.55
2019-05-11T22:07:50.001Z,102246.66
2019-05-11T22:10:21.944Z,102256.87
2019-05-11T22:12:53.891Z,102265.69
2019-05-11T22:15:25.828Z,102263.34
2019-05-11T22:17:58.548Z,102267.38
2019-05-11T22:20:30.689Z,102265.69
2019-05-11T22:23:02.639Z,102262.62
2019-05-11T22:25:34.649Z,102262.51
2019-05-11T22:28:08.498Z,102271.27
2019-05-11T22:30:40.369Z,102268.52
2019-05-11T22:33:12.315Z,102269.06
2019-05-11T22:35:44.278Z,102272.66
2019-05-11T22:38:16.291Z,102274.56
2019-05-11T22:40:48.831Z,102282.41
2019-05-11T22:43:21.024Z,102282.13
2019-05-11T22:45:53.324Z,102289.84
2019-05-11T22:48:25.269Z,102288.75
2019-05-11T22:50:58.648Z,102286.61
2019-05-11T22:53:43.890Z,102294.00
2019-05-11T22:56:04.489Z,102293.57
2019-05-11T22:58:36.499Z,102294.39
2019-05-11T23:01:09.551Z,102298.88
2019-05-11T23:03:41.480Z,102309.36
2019-05-11T23:06:13.437Z,102317.16
2019-05-11T23:08:45.366Z,102318.41
2019-05-11T23:11:17.937Z,102322.89
2019-05-11T23:13:50.147Z,102330.10
2019-05-11T23:16:22.097Z,102328.72
2019-05-11T23:18:54.035Z,102328.67
2019-05-11T23:21:29.994Z,102333.69
2019-05-11T23:23:59.785Z,102334.62
2019-05-11T23:26:31.745Z,102344.36
2019-05-11T23:29:04.007Z,102339.81
2019-05-11T23:31:38.136Z,102340.90
2019-05-11T23:34:09.609Z,102344.72
2019-05-11T23:36:41.544Z,102349.07
2019-05-11T23:39:13.508Z,102346.61
2019-05-11T23:41:48.123Z,102348.83
2019-05-11T23:44:19.417Z,102354.20
2019-05-11T23:46:51.349Z,102364.47
2019-05-11T23:49:23.304Z,102360.75
2019-05-11T23:51:55.253Z,102365.93
2019-05-11T23:54:27.901Z,102364.46
2019-05-11T23:57:00.109Z,102367.97
2019-05-11T23:59:32.051Z,102375.36
